sensor_id;sensor_type;location;lat;lon;timestamp;P1;durP1;ratioP1;P2;durP2;ratioP2
6999;SDS011;3540;53.242;10.408;2024-03-02T00:00:08;33.13;;;22.47;;
6999;SDS011;3540;53.242;10.408;2024-03-02T00:02:42;36.97;;;22.27;;
6999;SDS011;3540;53.242;10.408;2024-03-02T00:05:12;38.47;;;22.87;;
6999;SDS011;3540;53.242;10.408;2024-03-02T00:07:43;37.27;;;22.73;;
6999;SDS011;3540;53.242;10.408;2024-03-02T00:10:11;38.37;;;22.50;;
6999;SDS011;3540;53.242;10.408;2024-03-02T00:12:41;44.53;;;23.40;;
6999;SDS011;3540;53.242;10.408;2024-03-02T00:15:31;35.73;;;21.73;;
6999;SDS011;3540;53.242;10.408;2024-03-02T00:18:12;41.57;;;24.77;;
6999;SDS011;3540;53.242;10.408;2024-03-02T00:20:39;40.87;;;23.60;;
6999;SDS011;3540;53.242;10.408;2024-03-02T00:23:06;37.97;;;23.40;;
6999;SDS011;3540;53.242;10.408;2024-03-02T00:28:17;36.73;;;23.77;;
6999;SDS011;3540;53.242;10.408;2024-03-02T00:31:07;37.97;;;23.97;;
6999;SDS011;3540;53.242;10.408;2024-03-02T00:33:37;41.60;;;24.67;;
6999;SDS011;3540;53.242;10.408;2024-03-02T00:36:08;41.23;;;24.80;;
6999;SDS011;3540;53.242;10.408;2024-03-02T00:38:35;42.03;;;24.80;;
6999;SDS011;3540;53.242;10.408;2024-03-02T00:41:22;40.17;;;24.30;;
6999;SDS011;3540;53.242;10.408;2024-03-02T00:44:01;39.70;;;24.67;;
6999;SDS011;3540;53.242;10.408;2024-03-02T00:46:33;43.70;;;24.90;;
6999;SDS011;3540;53.242;10.408;2024-03-02T00:49:00;43.87;;;24.67;;
6999;SDS011;3540;53.242;10.408;2024-03-02T00:51:29;43.43;;;24.73;;
6999;SDS011;3540;53.242;10.408;2024-03-02T00:54:00;38.53;;;23.70;;
6999;SDS011;3540;53.242;10.408;2024-03-02T00:56:29;38.10;;;24.37;;
6999;SDS011;3540;53.242;10.408;2024-03-02T00:58:55;41.37;;;24.37;;
6999;SDS011;3540;53.242;10.408;2024-03-02T01:01:21;38.40;;;25.00;;
6999;SDS011;3540;53.242;10.408;2024-03-02T01:03:47;46.60;;;26.90;;
6999;SDS011;3540;53.242;10.408;2024-03-02T01:06:13;43.50;;;26.30;;
6999;SDS011;3540;53.242;10.408;2024-03-02T01:08:39;37.43;;;23.80;;
6999;SDS011;3540;53.242;10.408;2024-03-02T01:11:05;40.97;;;24.33;;
6999;SDS011;3540;53.242;10.408;2024-03-02T01:13:31;38.37;;;23.33;;
6999;SDS011;3540;53.242;10.408;2024-03-02T01:15:57;41.80;;;24.70;;
6999;SDS011;3540;53.242;10.408;2024-03-02T01:18:23;44.53;;;25.27;;
6999;SDS011;3540;53.242;10.408;2024-03-02T01:20:49;41.13;;;24.93;;
6999;SDS011;3540;53.242;10.408;2024-03-02T01:23:20;35.60;;;23.53;;
6999;SDS011;3540;53.242;10.408;2024-03-02T01:25:47;41.67;;;24.53;;
6999;SDS011;3540;53.242;10.408;2024-03-02T01:28:12;40.87;;;24.27;;
6999;SDS011;3540;53.242;10.408;2024-03-02T01:30:39;41.70;;;25.07;;
6999;SDS011;3540;53.242;10.408;2024-03-02T01:33:06;45.13;;;25.23;;
6999;SDS011;3540;53.242;10.408;2024-03-02T01:35:31;42.80;;;25.37;;
6999;SDS011;3540;53.242;10.408;2024-03-02T01:37:57;43.57;;;25.00;;
6999;SDS011;3540;53.242;10.408;2024-03-02T01:40:23;42.50;;;24.93;;
6999;SDS011;3540;53.242;10.408;2024-03-02T01:42:51;38.00;;;23.67;;
6999;SDS011;3540;53.242;10.408;2024-03-02T01:45:19;40.43;;;24.63;;
6999;SDS011;3540;53.242;10.408;2024-03-02T01:47:44;36.07;;;23.50;;
6999;SDS011;3540;53.242;10.408;2024-03-02T01:50:11;36.80;;;23.00;;
6999;SDS011;3540;53.242;10.408;2024-03-02T01:52:36;42.03;;;24.37;;
6999;SDS011;3540;53.242;10.408;2024-03-02T01:55:02;39.57;;;24.37;;
6999;SDS011;3540;53.242;10.408;2024-03-02T01:57:32;40.40;;;24.30;;
6999;SDS011;3540;53.242;10.408;2024-03-02T01:59:58;40.93;;;25.40;;
6999;SDS011;3540;53.242;10.408;2024-03-02T02:02:25;41.60;;;24.47;;
6999;SDS011;3540;53.242;10.408;2024-03-02T02:04:51;42.17;;;24.53;;
6999;SDS011;3540;53.242;10.408;2024-03-02T02:07:16;42.17;;;24.77;;
6999;SDS011;3540;53.242;10.408;2024-03-02T02:09:42;41.57;;;24.87;;
6999;SDS011;3540;53.242;10.408;2024-03-02T02:12:09;39.80;;;24.30;;
6999;SDS011;3540;53.242;10.408;2024-03-02T02:14:35;37.70;;;23.73;;
6999;SDS011;3540;53.242;10.408;2024-03-02T02:17:01;40.23;;;24.00;;
6999;SDS011;3540;53.242;10.408;2024-03-02T02:19:27;39.47;;;24.00;;
6999;SDS011;3540;53.242;10.408;2024-03-02T02:21:52;38.00;;;23.20;;
6999;SDS011;3540;53.242;10.408;2024-03-02T02:24:18;41.17;;;24.27;;
6999;SDS011;3540;53.242;10.408;2024-03-02T02:26:44;38.80;;;24.17;;
6999;SDS011;3540;53.242;10.408;2024-03-02T02:29:09;39.53;;;24.63;;
6999;SDS011;3540;53.242;10.408;2024-03-02T02:31:41;40.10;;;25.37;;
6999;SDS011;3540;53.242;10.408;2024-03-02T02:34:07;39.57;;;24.17;;
6999;SDS011;3540;53.242;10.408;2024-03-02T02:36:34;41.33;;;24.97;;
6999;SDS011;3540;53.242;10.408;2024-03-02T02:39:02;39.67;;;23.80;;
6999;SDS011;3540;53.242;10.408;2024-03-02T02:41:29;44.50;;;25.17;;
6999;SDS011;3540;53.242;10.408;2024-03-02T02:43:55;39.17;;;23.60;;
6999;SDS011;3540;53.242;10.408;2024-03-02T02:46:20;42.10;;;23.10;;
6999;SDS011;3540;53.242;10.408;2024-03-02T02:48:46;38.50;;;24.00;;
6999;SDS011;3540;53.242;10.408;2024-03-02T02:51:12;41.23;;;24.17;;
6999;SDS011;3540;53.242;10.408;2024-03-02T02:53:37;38.13;;;23.17;;
6999;SDS011;3540;53.242;10.408;2024-03-02T02:56:06;39.87;;;23.73;;
6999;SDS011;3540;53.242;10.408;2024-03-02T02:58:31;41.00;;;24.17;;
6999;SDS011;3540;53.242;10.408;2024-03-02T03:00:57;38.40;;;23.33;;
6999;SDS011;3540;53.242;10.408;2024-03-02T03:03:23;45.10;;;25.53;;
6999;SDS011;3540;53.242;10.408;2024-03-02T03:05:48;41.60;;;24.63;;
6999;SDS011;3540;53.242;10.408;2024-03-02T03:08:14;38.37;;;24.13;;
6999;SDS011;3540;53.242;10.408;2024-03-02T03:10:41;39.23;;;24.13;;
6999;SDS011;3540;53.242;10.408;2024-03-02T03:13:07;37.40;;;23.87;;
6999;SDS011;3540;53.242;10.408;2024-03-02T03:15:34;40.10;;;25.00;;
6999;SDS011;3540;53.242;10.408;2024-03-02T03:18:01;41.97;;;24.17;;
6999;SDS011;3540;53.242;10.408;2024-03-02T03:20:28;39.63;;;23.90;;
6999;SDS011;3540;53.242;10.408;2024-03-02T03:22:54;42.27;;;24.07;;
6999;SDS011;3540;53.242;10.408;2024-03-02T03:25:20;38.30;;;23.47;;
6999;SDS011;3540;53.242;10.408;2024-03-02T03:27:46;40.10;;;24.67;;
6999;SDS011;3540;53.242;10.408;2024-03-02T03:30:12;39.87;;;24.23;;
6999;SDS011;3540;53.242;10.408;2024-03-02T03:32:38;39.30;;;24.07;;
6999;SDS011;3540;53.242;10.408;2024-03-02T03:35:04;40.83;;;24.90;;
6999;SDS011;3540;53.242;10.408;2024-03-02T03:37:30;40.00;;;24.43;;
6999;SDS011;3540;53.242;10.408;2024-03-02T03:39:58;43.33;;;25.50;;
6999;SDS011;3540;53.242;10.408;2024-03-02T03:42:24;34.83;;;22.40;;
6999;SDS011;3540;53.242;10.408;2024-03-02T03:44:50;40.83;;;22.50;;
6999;SDS011;3540;53.242;10.408;2024-03-02T03:47:15;39.50;;;23.00;;
6999;SDS011;3540;53.242;10.408;2024-03-02T03:49:41;39.60;;;22.43;;
6999;SDS011;3540;53.242;10.408;2024-03-02T03:52:06;39.73;;;23.83;;
6999;SDS011;3540;53.242;10.408;2024-03-02T03:54:32;34.10;;;22.13;;
6999;SDS011;3540;53.242;10.408;2024-03-02T03:56:58;39.13;;;23.20;;
6999;SDS011;3540;53.242;10.408;2024-03-02T03:59:23;38.57;;;23.40;;
6999;SDS011;3540;53.242;10.408;2024-03-02T04:01:49;37.60;;;23.60;;
6999;SDS011;3540;53.242;10.408;2024-03-02T04:04:14;38.50;;;22.30;;
6999;SDS011;3540;53.242;10.408;2024-03-02T04:06:40;35.17;;;22.67;;
6999;SDS011;3540;53.242;10.408;2024-03-02T04:09:06;37.33;;;22.23;;
6999;SDS011;3540;53.242;10.408;2024-03-02T04:11:32;42.67;;;23.30;;
6999;SDS011;3540;53.242;10.408;2024-03-02T04:13:58;34.80;;;22.03;;
6999;SDS011;3540;53.242;10.408;2024-03-02T04:16:23;37.30;;;22.73;;
6999;SDS011;3540;53.242;10.408;2024-03-02T04:18:49;37.00;;;23.07;;
6999;SDS011;3540;53.242;10.408;2024-03-02T04:21:14;34.50;;;22.00;;
6999;SDS011;3540;53.242;10.408;2024-03-02T04:23:40;35.33;;;22.13;;
6999;SDS011;3540;53.242;10.408;2024-03-02T04:26:06;39.03;;;22.80;;
6999;SDS011;3540;53.242;10.408;2024-03-02T04:28:31;34.63;;;21.73;;
6999;SDS011;3540;53.242;10.408;2024-03-02T04:30:57;36.87;;;22.27;;
6999;SDS011;3540;53.242;10.408;2024-03-02T04:33:23;35.93;;;22.03;;
6999;SDS011;3540;53.242;10.408;2024-03-02T04:35:49;32.43;;;21.03;;
6999;SDS011;3540;53.242;10.408;2024-03-02T04:38:14;36.40;;;22.60;;
6999;SDS011;3540;53.242;10.408;2024-03-02T04:40:40;39.67;;;22.07;;
6999;SDS011;3540;53.242;10.408;2024-03-02T04:43:06;33.70;;;21.83;;
6999;SDS011;3540;53.242;10.408;2024-03-02T04:45:33;38.53;;;23.10;;
6999;SDS011;3540;53.242;10.408;2024-03-02T04:47:59;35.67;;;21.90;;
6999;SDS011;3540;53.242;10.408;2024-03-02T04:50:24;34.87;;;21.40;;
6999;SDS011;3540;53.242;10.408;2024-03-02T04:52:50;37.73;;;22.03;;
6999;SDS011;3540;53.242;10.408;2024-03-02T04:55:15;41.03;;;22.33;;
6999;SDS011;3540;53.242;10.408;2024-03-02T04:57:41;33.53;;;21.13;;
6999;SDS011;3540;53.242;10.408;2024-03-02T05:00:07;35.73;;;21.57;;
6999;SDS011;3540;53.242;10.408;2024-03-02T05:02:34;37.10;;;21.90;;
6999;SDS011;3540;53.242;10.408;2024-03-02T05:04:59;34.87;;;21.13;;
6999;SDS011;3540;53.242;10.408;2024-03-02T05:07:25;33.33;;;21.00;;
6999;SDS011;3540;53.242;10.408;2024-03-02T05:09:51;36.20;;;21.30;;
6999;SDS011;3540;53.242;10.408;2024-03-02T05:12:17;39.40;;;23.23;;
6999;SDS011;3540;53.242;10.408;2024-03-02T05:14:42;34.77;;;21.93;;
6999;SDS011;3540;53.242;10.408;2024-03-02T05:17:08;34.40;;;21.63;;
6999;SDS011;3540;53.242;10.408;2024-03-02T05:19:33;34.10;;;21.50;;
6999;SDS011;3540;53.242;10.408;2024-03-02T05:21:59;32.60;;;20.30;;
6999;SDS011;3540;53.242;10.408;2024-03-02T05:24:25;33.57;;;21.20;;
6999;SDS011;3540;53.242;10.408;2024-03-02T05:26:52;35.13;;;21.50;;
6999;SDS011;3540;53.242;10.408;2024-03-02T05:29:18;36.23;;;21.00;;
6999;SDS011;3540;53.242;10.408;2024-03-02T05:31:44;35.57;;;21.83;;
6999;SDS011;3540;53.242;10.408;2024-03-02T05:34:09;32.60;;;20.37;;
6999;SDS011;3540;53.242;10.408;2024-03-02T05:36:35;33.87;;;21.90;;
6999;SDS011;3540;53.242;10.408;2024-03-02T05:39:02;35.70;;;21.97;;
6999;SDS011;3540;53.242;10.408;2024-03-02T05:41:29;37.07;;;21.67;;
6999;SDS011;3540;53.242;10.408;2024-03-02T05:43:56;35.10;;;21.97;;
6999;SDS011;3540;53.242;10.408;2024-03-02T05:46:22;36.97;;;22.03;;
6999;SDS011;3540;53.242;10.408;2024-03-02T05:48:47;41.50;;;22.60;;
6999;SDS011;3540;53.242;10.408;2024-03-02T05:51:13;35.27;;;22.20;;
6999;SDS011;3540;53.242;10.408;2024-03-02T05:53:38;36.37;;;21.83;;
6999;SDS011;3540;53.242;10.408;2024-03-02T05:56:04;35.57;;;21.87;;
6999;SDS011;3540;53.242;10.408;2024-03-02T05:58:31;33.90;;;21.47;;
6999;SDS011;3540;53.242;10.408;2024-03-02T06:01:35;35.93;;;21.57;;
6999;SDS011;3540;53.242;10.408;2024-03-02T06:04:00;35.77;;;21.77;;
6999;SDS011;3540;53.242;10.408;2024-03-02T06:06:26;39.10;;;22.67;;
6999;SDS011;3540;53.242;10.408;2024-03-02T06:08:52;44.87;;;23.33;;
6999;SDS011;3540;53.242;10.408;2024-03-02T06:11:21;37.30;;;22.90;;
6999;SDS011;3540;53.242;10.408;2024-03-02T06:13:46;35.63;;;21.63;;
6999;SDS011;3540;53.242;10.408;2024-03-02T06:16:12;40.60;;;24.03;;
6999;SDS011;3540;53.242;10.408;2024-03-02T06:18:38;35.47;;;22.10;;
6999;SDS011;3540;53.242;10.408;2024-03-02T06:21:04;35.33;;;22.40;;
6999;SDS011;3540;53.242;10.408;2024-03-02T06:23:29;38.97;;;22.93;;
6999;SDS011;3540;53.242;10.408;2024-03-02T06:25:55;38.87;;;22.57;;
6999;SDS011;3540;53.242;10.408;2024-03-02T06:28:21;34.67;;;22.37;;
6999;SDS011;3540;53.242;10.408;2024-03-02T06:30:46;36.57;;;22.63;;
6999;SDS011;3540;53.242;10.408;2024-03-02T06:33:12;34.53;;;22.80;;
6999;SDS011;3540;53.242;10.408;2024-03-02T06:35:37;36.83;;;22.53;;
6999;SDS011;3540;53.242;10.408;2024-03-02T06:38:04;35.60;;;22.80;;
6999;SDS011;3540;53.242;10.408;2024-03-02T06:40:29;37.67;;;22.73;;
6999;SDS011;3540;53.242;10.408;2024-03-02T06:42:55;40.33;;;24.10;;
6999;SDS011;3540;53.242;10.408;2024-03-02T06:45:21;36.97;;;22.43;;
6999;SDS011;3540;53.242;10.408;2024-03-02T06:47:46;35.50;;;22.30;;
6999;SDS011;3540;53.242;10.408;2024-03-02T06:50:12;35.83;;;22.80;;
6999;SDS011;3540;53.242;10.408;2024-03-02T06:52:37;40.47;;;23.37;;
6999;SDS011;3540;53.242;10.408;2024-03-02T06:55:03;41.97;;;23.63;;
6999;SDS011;3540;53.242;10.408;2024-03-02T06:57:30;36.00;;;23.30;;
6999;SDS011;3540;53.242;10.408;2024-03-02T06:59:55;40.67;;;23.13;;
6999;SDS011;3540;53.242;10.408;2024-03-02T07:02:23;39.27;;;24.50;;
6999;SDS011;3540;53.242;10.408;2024-03-02T07:04:51;44.20;;;24.93;;
6999;SDS011;3540;53.242;10.408;2024-03-02T07:07:20;41.67;;;23.57;;
6999;SDS011;3540;53.242;10.408;2024-03-02T07:09:46;37.83;;;24.17;;
6999;SDS011;3540;53.242;10.408;2024-03-02T07:12:13;35.93;;;22.67;;
6999;SDS011;3540;53.242;10.408;2024-03-02T07:14:39;43.43;;;25.77;;
6999;SDS011;3540;53.242;10.408;2024-03-02T07:17:23;36.43;;;22.67;;
6999;SDS011;3540;53.242;10.408;2024-03-02T07:19:48;38.60;;;23.80;;
6999;SDS011;3540;53.242;10.408;2024-03-02T07:22:14;40.67;;;24.93;;
6999;SDS011;3540;53.242;10.408;2024-03-02T07:24:43;37.40;;;23.63;;
6999;SDS011;3540;53.242;10.408;2024-03-02T07:27:10;43.13;;;24.00;;
6999;SDS011;3540;53.242;10.408;2024-03-02T07:29:37;36.20;;;23.40;;
6999;SDS011;3540;53.242;10.408;2024-03-02T07:32:03;37.63;;;23.17;;
6999;SDS011;3540;53.242;10.408;2024-03-02T07:34:29;36.03;;;23.07;;
6999;SDS011;3540;53.242;10.408;2024-03-02T07:36:55;39.17;;;23.30;;
6999;SDS011;3540;53.242;10.408;2024-03-02T07:39:21;34.60;;;22.47;;
6999;SDS011;3540;53.242;10.408;2024-03-02T07:41:46;35.53;;;22.47;;
6999;SDS011;3540;53.242;10.408;2024-03-02T07:44:12;37.37;;;23.60;;
6999;SDS011;3540;53.242;10.408;2024-03-02T07:46:40;38.57;;;23.73;;
6999;SDS011;3540;53.242;10.408;2024-03-02T07:49:06;36.37;;;23.47;;
6999;SDS011;3540;53.242;10.408;2024-03-02T07:51:33;36.87;;;22.70;;
6999;SDS011;3540;53.242;10.408;2024-03-02T07:53:58;32.67;;;22.03;;
6999;SDS011;3540;53.242;10.408;2024-03-02T07:56:24;34.60;;;22.07;;
6999;SDS011;3540;53.242;10.408;2024-03-02T07:58:49;36.47;;;23.27;;
6999;SDS011;3540;53.242;10.408;2024-03-02T08:01:15;36.43;;;22.13;;
6999;SDS011;3540;53.242;10.408;2024-03-02T08:03:42;32.87;;;21.67;;
6999;SDS011;3540;53.242;10.408;2024-03-02T08:06:12;36.90;;;21.93;;
6999;SDS011;3540;53.242;10.408;2024-03-02T08:08:39;36.43;;;21.30;;
6999;SDS011;3540;53.242;10.408;2024-03-02T08:11:05;30.80;;;21.03;;
6999;SDS011;3540;53.242;10.408;2024-03-02T08:13:31;38.40;;;22.97;;
6999;SDS011;3540;53.242;10.408;2024-03-02T08:15:57;36.33;;;22.83;;
6999;SDS011;3540;53.242;10.408;2024-03-02T08:18:23;33.33;;;21.07;;
6999;SDS011;3540;53.242;10.408;2024-03-02T08:20:48;36.13;;;21.90;;
6999;SDS011;3540;53.242;10.408;2024-03-02T08:23:14;31.27;;;20.50;;
6999;SDS011;3540;53.242;10.408;2024-03-02T08:25:40;32.47;;;20.37;;
6999;SDS011;3540;53.242;10.408;2024-03-02T08:28:05;30.53;;;20.17;;
6999;SDS011;3540;53.242;10.408;2024-03-02T08:30:31;32.80;;;19.33;;
6999;SDS011;3540;53.242;10.408;2024-03-02T08:32:57;31.20;;;19.97;;
6999;SDS011;3540;53.242;10.408;2024-03-02T08:35:22;29.77;;;19.43;;
6999;SDS011;3540;53.242;10.408;2024-03-02T08:37:48;31.23;;;18.23;;
6999;SDS011;3540;53.242;10.408;2024-03-02T08:40:14;30.03;;;19.87;;
6999;SDS011;3540;53.242;10.408;2024-03-02T08:42:40;30.67;;;19.90;;
6999;SDS011;3540;53.242;10.408;2024-03-02T08:45:06;27.53;;;19.07;;
6999;SDS011;3540;53.242;10.408;2024-03-02T08:47:32;29.60;;;19.13;;
6999;SDS011;3540;53.242;10.408;2024-03-02T08:49:59;26.43;;;17.77;;
6999;SDS011;3540;53.242;10.408;2024-03-02T08:52:25;28.70;;;18.40;;
6999;SDS011;3540;53.242;10.408;2024-03-02T08:54:51;27.07;;;18.43;;
6999;SDS011;3540;53.242;10.408;2024-03-02T08:57:16;27.73;;;17.80;;
6999;SDS011;3540;53.242;10.408;2024-03-02T08:59:42;27.30;;;17.60;;
6999;SDS011;3540;53.242;10.408;2024-03-02T09:02:08;25.47;;;16.60;;
6999;SDS011;3540;53.242;10.408;2024-03-02T09:04:34;24.30;;;17.03;;
6999;SDS011;3540;53.242;10.408;2024-03-02T09:07:00;24.33;;;16.53;;
6999;SDS011;3540;53.242;10.408;2024-03-02T09:09:26;28.13;;;16.33;;
6999;SDS011;3540;53.242;10.408;2024-03-02T09:11:51;24.70;;;15.90;;
6999;SDS011;3540;53.242;10.408;2024-03-02T09:14:19;22.13;;;16.20;;
6999;SDS011;3540;53.242;10.408;2024-03-02T09:16:46;24.67;;;16.00;;
6999;SDS011;3540;53.242;10.408;2024-03-02T09:19:11;26.63;;;15.73;;
6999;SDS011;3540;53.242;10.408;2024-03-02T09:21:37;21.57;;;15.33;;
6999;SDS011;3540;53.242;10.408;2024-03-02T09:24:03;22.97;;;14.73;;
6999;SDS011;3540;53.242;10.408;2024-03-02T09:26:29;21.37;;;14.70;;
6999;SDS011;3540;53.242;10.408;2024-03-02T09:28:54;26.53;;;14.70;;
6999;SDS011;3540;53.242;10.408;2024-03-02T09:31:20;20.70;;;13.63;;
6999;SDS011;3540;53.242;10.408;2024-03-02T09:33:45;20.83;;;14.50;;
6999;SDS011;3540;53.242;10.408;2024-03-02T09:36:21;20.40;;;14.33;;
6999;SDS011;3540;53.242;10.408;2024-03-02T09:38:47;19.30;;;13.53;;
6999;SDS011;3540;53.242;10.408;2024-03-02T09:41:13;21.07;;;13.00;;
6999;SDS011;3540;53.242;10.408;2024-03-02T09:43:40;19.73;;;13.80;;
6999;SDS011;3540;53.242;10.408;2024-03-02T09:46:06;18.97;;;13.03;;
6999;SDS011;3540;53.242;10.408;2024-03-02T09:48:33;19.77;;;13.77;;
6999;SDS011;3540;53.242;10.408;2024-03-02T09:51:00;17.80;;;12.83;;
6999;SDS011;3540;53.242;10.408;2024-03-02T09:53:28;19.50;;;13.37;;
6999;SDS011;3540;53.242;10.408;2024-03-02T09:55:56;21.47;;;13.17;;
6999;SDS011;3540;53.242;10.408;2024-03-02T09:58:23;17.30;;;12.27;;
6999;SDS011;3540;53.242;10.408;2024-03-02T10:00:49;16.30;;;12.83;;
6999;SDS011;3540;53.242;10.408;2024-03-02T10:03:14;17.63;;;12.83;;
6999;SDS011;3540;53.242;10.408;2024-03-02T10:05:40;18.97;;;12.50;;
6999;SDS011;3540;53.242;10.408;2024-03-02T10:08:06;18.03;;;13.00;;
6999;SDS011;3540;53.242;10.408;2024-03-02T10:10:38;18.43;;;12.43;;
6999;SDS011;3540;53.242;10.408;2024-03-02T10:13:09;18.87;;;12.90;;
6999;SDS011;3540;53.242;10.408;2024-03-02T10:15:36;24.83;;;12.40;;
6999;SDS011;3540;53.242;10.408;2024-03-02T10:18:12;17.20;;;11.77;;
6999;SDS011;3540;53.242;10.408;2024-03-02T10:20:39;19.83;;;12.37;;
6999;SDS011;3540;53.242;10.408;2024-03-02T10:23:12;17.47;;;12.60;;
6999;SDS011;3540;53.242;10.408;2024-03-02T10:25:39;17.17;;;11.43;;
6999;SDS011;3540;53.242;10.408;2024-03-02T10:28:05;15.23;;;11.57;;
6999;SDS011;3540;53.242;10.408;2024-03-02T10:30:31;16.57;;;11.73;;
6999;SDS011;3540;53.242;10.408;2024-03-02T10:33:03;16.00;;;11.67;;
6999;SDS011;3540;53.242;10.408;2024-03-02T10:35:30;18.90;;;11.40;;
6999;SDS011;3540;53.242;10.408;2024-03-02T10:37:58;16.17;;;11.50;;
6999;SDS011;3540;53.242;10.408;2024-03-02T10:40:26;15.90;;;11.33;;
6999;SDS011;3540;53.242;10.408;2024-03-02T10:42:51;18.80;;;11.70;;
6999;SDS011;3540;53.242;10.408;2024-03-02T10:45:17;15.33;;;11.33;;
6999;SDS011;3540;53.242;10.408;2024-03-02T10:47:46;14.77;;;11.13;;
6999;SDS011;3540;53.242;10.408;2024-03-02T10:50:12;19.23;;;12.20;;
6999;SDS011;3540;53.242;10.408;2024-03-02T10:52:38;15.70;;;11.03;;
6999;SDS011;3540;53.242;10.408;2024-03-02T10:55:07;15.17;;;11.37;;
6999;SDS011;3540;53.242;10.408;2024-03-02T10:57:53;13.77;;;11.20;;
6999;SDS011;3540;53.242;10.408;2024-03-02T11:00:21;15.10;;;11.43;;
6999;SDS011;3540;53.242;10.408;2024-03-02T11:02:52;17.37;;;10.17;;
6999;SDS011;3540;53.242;10.408;2024-03-02T11:05:29;17.07;;;11.10;;
6999;SDS011;3540;53.242;10.408;2024-03-02T11:08:02;15.20;;;11.43;;
6999;SDS011;3540;53.242;10.408;2024-03-02T11:10:44;17.97;;;13.03;;
6999;SDS011;3540;53.242;10.408;2024-03-02T11:13:27;15.63;;;11.50;;
6999;SDS011;3540;53.242;10.408;2024-03-02T11:15:58;16.67;;;11.40;;
6999;SDS011;3540;53.242;10.408;2024-03-02T11:18:30;17.93;;;11.73;;
6999;SDS011;3540;53.242;10.408;2024-03-02T11:20:57;17.17;;;11.87;;
6999;SDS011;3540;53.242;10.408;2024-03-02T11:23:33;18.20;;;11.77;;
6999;SDS011;3540;53.242;10.408;2024-03-02T11:28:44;15.93;;;11.57;;
6999;SDS011;3540;53.242;10.408;2024-03-02T11:31:10;17.40;;;11.70;;
6999;SDS011;3540;53.242;10.408;2024-03-02T11:33:36;17.30;;;11.40;;
6999;SDS011;3540;53.242;10.408;2024-03-02T11:36:02;15.93;;;11.97;;
6999;SDS011;3540;53.242;10.408;2024-03-02T11:38:29;15.67;;;11.43;;
6999;SDS011;3540;53.242;10.408;2024-03-02T11:40:57;16.57;;;11.57;;
6999;SDS011;3540;53.242;10.408;2024-03-02T11:43:25;17.33;;;12.03;;
6999;SDS011;3540;53.242;10.408;2024-03-02T11:46:03;18.27;;;12.33;;
6999;SDS011;3540;53.242;10.408;2024-03-02T11:48:34;15.50;;;12.07;;
6999;SDS011;3540;53.242;10.408;2024-03-02T11:51:02;17.10;;;11.47;;
6999;SDS011;3540;53.242;10.408;2024-03-02T11:53:27;14.83;;;10.87;;
6999;SDS011;3540;53.242;10.408;2024-03-02T11:55:57;18.67;;;11.70;;
6999;SDS011;3540;53.242;10.408;2024-03-02T11:58:23;14.43;;;11.03;;
6999;SDS011;3540;53.242;10.408;2024-03-02T12:00:51;17.57;;;11.30;;
6999;SDS011;3540;53.242;10.408;2024-03-02T12:03:22;17.53;;;11.67;;
6999;SDS011;3540;53.242;10.408;2024-03-02T12:05:55;15.90;;;11.73;;
6999;SDS011;3540;53.242;10.408;2024-03-02T12:08:21;15.60;;;11.20;;
6999;SDS011;3540;53.242;10.408;2024-03-02T12:10:59;17.03;;;11.00;;
6999;SDS011;3540;53.242;10.408;2024-03-02T12:13:26;17.63;;;11.00;;
6999;SDS011;3540;53.242;10.408;2024-03-02T12:15:53;14.53;;;10.57;;
6999;SDS011;3540;53.242;10.408;2024-03-02T12:18:22;13.13;;;10.27;;
6999;SDS011;3540;53.242;10.408;2024-03-02T12:20:49;16.03;;;10.97;;
6999;SDS011;3540;53.242;10.408;2024-03-02T12:23:22;14.20;;;10.23;;
6999;SDS011;3540;53.242;10.408;2024-03-02T12:25:47;15.77;;;10.57;;
6999;SDS011;3540;53.242;10.408;2024-03-02T12:28:14;16.07;;;10.83;;
6999;SDS011;3540;53.242;10.408;2024-03-02T12:30:39;14.77;;;10.20;;
6999;SDS011;3540;53.242;10.408;2024-03-02T12:33:05;15.00;;;9.70;;
6999;SDS011;3540;53.242;10.408;2024-03-02T12:35:31;14.90;;;10.00;;
6999;SDS011;3540;53.242;10.408;2024-03-02T12:37:56;13.63;;;9.40;;
6999;SDS011;3540;53.242;10.408;2024-03-02T12:40:23;15.40;;;9.53;;
6999;SDS011;3540;53.242;10.408;2024-03-02T12:42:49;12.20;;;9.60;;
6999;SDS011;3540;53.242;10.408;2024-03-02T12:45:15;12.83;;;8.90;;
6999;SDS011;3540;53.242;10.408;2024-03-02T12:47:48;12.03;;;9.20;;
6999;SDS011;3540;53.242;10.408;2024-03-02T12:50:14;15.03;;;9.63;;
6999;SDS011;3540;53.242;10.408;2024-03-02T12:52:40;13.70;;;9.80;;
6999;SDS011;3540;53.242;10.408;2024-03-02T12:55:06;12.53;;;9.50;;
6999;SDS011;3540;53.242;10.408;2024-03-02T12:57:32;13.27;;;9.50;;
6999;SDS011;3540;53.242;10.408;2024-03-02T12:59:59;11.90;;;9.00;;
6999;SDS011;3540;53.242;10.408;2024-03-02T13:02:35;14.10;;;8.97;;
6999;SDS011;3540;53.242;10.408;2024-03-02T13:05:02;11.97;;;9.00;;
6999;SDS011;3540;53.242;10.408;2024-03-02T13:07:28;12.47;;;9.37;;
6999;SDS011;3540;53.242;10.408;2024-03-02T13:09:55;12.03;;;9.73;;
6999;SDS011;3540;53.242;10.408;2024-03-02T13:12:21;13.73;;;9.90;;
6999;SDS011;3540;53.242;10.408;2024-03-02T13:14:51;12.90;;;9.53;;
6999;SDS011;3540;53.242;10.408;2024-03-02T13:17:18;14.53;;;8.97;;
6999;SDS011;3540;53.242;10.408;2024-03-02T13:19:53;12.43;;;9.73;;
6999;SDS011;3540;53.242;10.408;2024-03-02T13:22:22;12.90;;;9.00;;
6999;SDS011;3540;53.242;10.408;2024-03-02T13:24:52;12.30;;;9.63;;
6999;SDS011;3540;53.242;10.408;2024-03-02T13:27:21;14.43;;;10.03;;
6999;SDS011;3540;53.242;10.408;2024-03-02T13:29:46;13.00;;;9.40;;
6999;SDS011;3540;53.242;10.408;2024-03-02T13:32:13;14.17;;;9.47;;
6999;SDS011;3540;53.242;10.408;2024-03-02T13:34:39;13.27;;;9.83;;
6999;SDS011;3540;53.242;10.408;2024-03-02T13:37:05;11.80;;;9.23;;
6999;SDS011;3540;53.242;10.408;2024-03-02T13:39:31;12.83;;;9.83;;
6999;SDS011;3540;53.242;10.408;2024-03-02T13:41:58;12.03;;;9.30;;
6999;SDS011;3540;53.242;10.408;2024-03-02T13:44:29;14.43;;;9.70;;
6999;SDS011;3540;53.242;10.408;2024-03-02T13:46:55;12.20;;;9.60;;
6999;SDS011;3540;53.242;10.408;2024-03-02T13:49:22;11.47;;;8.60;;
6999;SDS011;3540;53.242;10.408;2024-03-02T13:51:48;12.97;;;9.10;;
6999;SDS011;3540;53.242;10.408;2024-03-02T13:54:14;13.67;;;8.70;;
6999;SDS011;3540;53.242;10.408;2024-03-02T13:56:39;12.37;;;8.80;;
6999;SDS011;3540;53.242;10.408;2024-03-02T13:59:06;11.60;;;8.97;;
6999;SDS011;3540;53.242;10.408;2024-03-02T14:01:32;11.40;;;9.10;;
6999;SDS011;3540;53.242;10.408;2024-03-02T14:03:58;12.27;;;8.90;;
6999;SDS011;3540;53.242;10.408;2024-03-02T14:06:24;11.80;;;8.43;;
6999;SDS011;3540;53.242;10.408;2024-03-02T14:08:51;11.73;;;8.53;;
6999;SDS011;3540;53.242;10.408;2024-03-02T14:11:17;11.07;;;8.10;;
6999;SDS011;3540;53.242;10.408;2024-03-02T14:13:44;11.60;;;8.17;;
6999;SDS011;3540;53.242;10.408;2024-03-02T14:16:18;10.60;;;7.87;;
6999;SDS011;3540;53.242;10.408;2024-03-02T14:18:44;13.60;;;8.10;;
6999;SDS011;3540;53.242;10.408;2024-03-02T14:21:09;15.20;;;8.23;;
6999;SDS011;3540;53.242;10.408;2024-03-02T14:23:35;12.17;;;8.47;;
6999;SDS011;3540;53.242;10.408;2024-03-02T14:26:01;12.47;;;8.00;;
6999;SDS011;3540;53.242;10.408;2024-03-02T14:28:26;12.83;;;7.80;;
6999;SDS011;3540;53.242;10.408;2024-03-02T14:30:53;11.27;;;7.80;;
6999;SDS011;3540;53.242;10.408;2024-03-02T14:33:19;12.37;;;8.13;;
6999;SDS011;3540;53.242;10.408;2024-03-02T14:35:45;14.93;;;7.80;;
6999;SDS011;3540;53.242;10.408;2024-03-02T14:38:11;14.97;;;7.17;;
6999;SDS011;3540;53.242;10.408;2024-03-02T14:40:37;11.13;;;7.73;;